Time;durP1;ratioP1;P1;durP2;ratioP2;P2;SDS_P1;SDS_P2;PMS_P1;PMS_P2;Temp;Humidity;BMP_temperature;BMP_pressure;BME280_temperature;BME280_humidity;BME280_pressure;Samples;Min_cycle;Max_cycle;Signal;HPM_P1;HPM_P2
2022/06/13 00:01:52;;;;;;;2.30;1.73;;;22.80;72.00;;;;;;5071234;28;20067;-71
2022/06/13 00:04:18;;;;;;;1.80;1.60;;;22.70;71.80;;;;;;5071526;28;20064;-70
2022/06/13 00:06:44;;;;;;;1.50;1.40;;;22.70;71.80;;;;;;5071321;28;20094;-71
2022/06/13 00:09:10;;;;;;;2.35;1.92;;;22.70;71.50;;;;;;5087020;28;20460;-71
2022/06/13 00:11:36;;;;;;;2.72;2.05;;;22.70;71.30;;;;;;5091739;28;20059;-72
2022/06/13 00:14:03;;;;;;;1.98;1.75;;;22.60;71.50;;;;;;5091375;28;20060;-69
2022/06/13 00:16:29;;;;;;;1.73;1.63;;;22.60;71.50;;;;;;5091691;28;20030;-70
2022/06/13 00:18:55;;;;;;;2.17;1.98;;;22.50;71.40;;;;;;5091020;28;20024;-70
2022/06/13 00:21:27;;;;;;;2.33;1.95;;;22.50;71.50;;;;;;5091877;28;20032;-71
2022/06/13 00:23:53;;;;;;;2.38;1.80;;;22.50;72.20;;;;;;5091390;28;20032;-70
2022/06/13 00:26:21;;;;;;;4.28;1.85;;;22.50;72.20;;;;;;5091076;28;20032;-70
2022/06/13 00:28:48;;;;;;;1.98;1.75;;;22.40;72.80;;;;;;5093838;28;20038;-70
2022/06/13 00:31:14;;;;;;;2.38;1.73;;;22.40;73.00;;;;;;5095092;28;20108;-70
2022/06/13 00:33:40;;;;;;;2.35;1.88;;;22.40;72.60;;;;;;5095498;28;20167;-71
2022/06/13 00:36:07;;;;;;;2.50;1.85;;;22.40;72.60;;;;;;5094683;28;20224;-71
2022/06/13 00:38:32;;;;;;;1.73;1.58;;;22.40;72.10;;;;;;5095125;28;20028;-69
2022/06/13 00:40:59;;;;;;;2.00;1.77;;;22.30;71.80;;;;;;5094787;28;20020;-69
2022/06/13 00:43:25;;;;;;;2.17;1.40;;;22.30;71.90;;;;;;5094816;28;20020;-70
2022/06/13 00:45:50;;;;;;;2.75;1.60;;;22.30;71.70;;;;;;5094504;28;20040;-70
2022/06/13 00:48:22;;;;;;;1.95;1.52;;;22.30;71.60;;;;;;5094634;28;20016;-70
2022/06/13 00:50:58;;;;;;;1.90;1.63;;;22.20;71.70;;;;;;5094980;28;20050;-70
2022/06/13 00:53:35;;;;;;;1.70;1.52;;;22.20;72.00;;;;;;5095068;28;20036;-70
2022/06/13 00:56:13;;;;;;;2.00;1.80;;;22.10;72.70;;;;;;5094733;28;20091;-70
2022/06/13 00:58:46;;;;;;;2.00;1.80;;;22.10;72.60;;;;;;5094978;28;20101;-71
2022/06/13 01:01:13;;;;;;;1.77;1.58;;;22.10;72.80;;;;;;5094532;28;20045;-71
2022/06/13 01:03:41;;;;;;;2.15;1.77;;;22.00;73.50;;;;;;5094640;28;20081;-71
2022/06/13 01:06:07;;;;;;;2.30;2.03;;;22.00;73.90;;;;;;5094260;28;20036;-69
2022/06/13 01:08:36;;;;;;;2.17;2.00;;;22.00;74.10;;;;;;5094655;28;20376;-70
2022/06/13 01:11:26;;;;;;;3.50;2.10;;;21.90;74.50;;;;;;5079231;28;20024;-70
2022/06/13 01:14:09;;;;;;;2.20;2.00;;;21.90;74.30;;;;;;5073741;28;20075;-70
2022/06/13 01:17:06;;;;;;;3.30;2.22;;;21.90;75.00;;;;;;5074292;28;20035;-70
2022/06/13 01:20:01;;;;;;;3.05;2.35;;;21.90;75.90;;;;;;5073987;28;20481;-70
2022/06/13 01:22:49;;;;;;;4.15;2.13;;;21.80;77.00;;;;;;4984952;28;20045;-71
2022/06/13 01:25:38;;;;;;;3.33;2.58;;;21.80;77.30;;;;;;5073416;28;20029;-70
2022/06/13 01:28:32;;;;;;;3.67;2.38;;;21.80;77.70;;;;;;5073682;28;20116;-71
2022/06/13 01:31:27;;;;;;;2.65;2.38;;;21.70;77.80;;;;;;5074007;28;20024;-71
2022/06/13 01:34:11;;;;;;;2.60;2.40;;;21.70;77.40;;;;;;5074055;28;20477;-70
2022/06/13 01:37:10;;;;;;;2.65;2.15;;;21.60;78.00;;;;;;5074168;28;20059;-71
2022/06/13 01:40:22;;;;;;;4.40;2.40;;;21.60;78.10;;;;;;5073553;28;20027;-71
2022/06/13 01:43:05;;;;;;;2.60;1.67;;;21.50;78.70;;;;;;5042598;28;20589;-69
2022/06/13 01:45:43;;;;;;;2.22;2.03;;;21.50;78.50;;;;;;5073434;28;20094;-69
2022/06/13 01:48:44;;;;;;;3.67;2.00;;;21.50;78.10;;;;;;5073317;28;20155;-69
2022/06/13 01:51:15;;;;;;;2.35;2.13;;;21.50;77.10;;;;;;5019526;28;20487;-70
2022/06/13 01:53:59;;;;;;;2.60;2.00;;;21.50;76.80;;;;;;5073427;28;20107;-71
2022/06/13 01:56:34;;;;;;;2.60;2.20;;;21.40;77.00;;;;;;5072935;28;20028;-71
2022/06/13 01:59:16;;;;;;;2.13;1.92;;;21.40;77.20;;;;;;5073666;28;20025;-71
2022/06/13 02:01:48;;;;;;;2.28;2.03;;;21.30;76.50;;;;;;5090054;28;20111;-71
2022/06/13 02:04:22;;;;;;;2.47;2.20;;;21.30;77.10;;;;;;5093568;28;20051;-70
2022/06/13 02:07:04;;;;;;;2.72;2.08;;;21.30;76.80;;;;;;5093385;28;20032;-70
2022/06/13 02:09:40;;;;;;;2.40;1.85;;;21.20;77.40;;;;;;5093864;28;20016;-71
2022/06/13 02:12:05;;;;;;;4.25;2.72;;;21.20;76.80;;;;;;5092886;28;20107;-70
2022/06/13 02:14:50;;;;;;;2.30;2.10;;;21.20;77.30;;;;;;5093456;28;20114;-71
2022/06/13 02:17:22;;;;;;;2.83;2.25;;;21.10;77.90;;;;;;5093276;28;20024;-69
2022/06/13 02:20:02;;;;;;;3.00;2.28;;;21.10;78.30;;;;;;5093444;28;20379;-70
2022/06/13 02:22:35;;;;;;;4.47;2.25;;;21.10;77.40;;;;;;5093120;28;20032;-71
2022/06/13 02:25:20;;;;;;;2.97;2.38;;;21.10;78.40;;;;;;5093307;28;20050;-71
2022/06/13 02:27:54;;;;;;;2.45;1.90;;;21.00;78.70;;;;;;5093211;28;20404;-71
2022/06/13 02:30:22;;;;;;;3.10;2.33;;;21.00;78.20;;;;;;5092557;28;20097;-70
2022/06/13 02:32:54;;;;;;;2.85;2.50;;;21.10;78.40;;;;;;5092802;28;20021;-71
2022/06/13 02:35:46;;;;;;;2.20;2.00;;;21.00;79.00;;;;;;5092339;28;20097;-70
2022/06/13 02:38:30;;;;;;;3.08;2.13;;;21.00;79.90;;;;;;5092472;28;20055;-70
2022/06/13 02:41:00;;;;;;;4.13;2.50;;;21.10;80.10;;;;;;5092690;28;20491;-70
2022/06/13 02:43:31;;;;;;;3.67;1.97;;;21.10;79.30;;;;;;5092147;28;20027;-70
2022/06/13 02:46:03;;;;;;;2.00;1.80;;;21.00;79.60;;;;;;5092407;28;20047;-70
2022/06/13 02:48:57;;;;;;;2.15;1.90;;;21.00;79.70;;;;;;5092744;28;20050;-70
2022/06/13 02:51:35;;;;;;;3.25;1.90;;;21.00;79.00;;;;;;5091662;28;20024;-70
2022/06/13 02:54:08;;;;;;;2.92;2.05;;;21.00;79.20;;;;;;5092731;28;20024;-70
2022/06/13 02:59:56;;;;;;;2.72;1.63;;;21.00;78.40;;;;;;5092427;28;20113;-71
2022/06/13 03:02:29;;;;;;;2.75;1.73;;;21.00;78.10;;;;;;5092415;28;20031;-70
2022/06/13 03:05:00;;;;;;;2.38;1.77;;;20.90;78.30;;;;;;5085430;28;20150;-70
2022/06/13 03:07:34;;;;;;;2.78;1.70;;;20.90;78.30;;;;;;5071728;28;20048;-70
2022/06/13 03:10:19;;;;;;;2.05;1.75;;;20.90;78.30;;;;;;5071990;28;20116;-70
2022/06/13 03:12:58;;;;;;;3.28;1.80;;;20.80;78.70;;;;;;5072311;28;20111;-70
2022/06/13 03:15:30;;;;;;;1.92;1.70;;;20.80;78.60;;;;;;5071608;28;20440;-70
2022/06/13 03:18:05;;;;;;;1.65;1.55;;;20.70;78.60;;;;;;5072176;28;20028;-70
2022/06/13 03:20:41;;;;;;;3.17;1.92;;;20.70;78.60;;;;;;5071776;28;20029;-70
2022/06/13 03:23:33;;;;;;;2.63;1.60;;;20.70;79.20;;;;;;5072181;28;20025;-71
2022/06/13 03:26:10;;;;;;;1.90;1.75;;;20.70;78.80;;;;;;5072156;28;20465;-71
2022/06/13 03:29:03;;;;;;;2.45;1.80;;;20.70;78.80;;;;;;5087380;28;20028;-71
2022/06/13 03:31:36;;;;;;;1.80;1.50;;;20.80;78.70;;;;;;5088083;28;20644;-69
2022/06/13 03:34:09;;;;;;;1.73;1.48;;;20.80;78.40;;;;;;5091322;28;20020;-71
2022/06/13 03:36:49;;;;;;;1.77;1.65;;;20.80;77.90;;;;;;5086842;28;20016;-71
2022/06/13 03:39:19;;;;;;;1.52;1.42;;;20.80;77.40;;;;;;5082765;28;20039;-70
2022/06/13 03:41:56;;;;;;;1.80;1.55;;;20.80;77.20;;;;;;5078177;28;20027;-71
2022/06/13 03:44:35;;;;;;;1.40;1.30;;;20.80;76.60;;;;;;5090900;28;20028;-70
2022/06/13 03:47:08;;;;;;;1.60;1.40;;;20.80;77.00;;;;;;5076779;28;20090;-69
2022/06/13 03:49:35;;;;;;;1.50;1.40;;;20.80;76.60;;;;;;5071163;28;20025;-70
2022/06/13 03:52:05;;;;;;;3.35;1.95;;;20.80;76.30;;;;;;5071306;28;20052;-70
2022/06/13 03:54:39;;;;;;;2.00;1.80;;;20.90;76.50;;;;;;5085867;28;20035;-70
2022/06/13 03:57:12;;;;;;;2.45;1.83;;;20.80;76.40;;;;;;5089327;28;20032;-70
2022/06/13 03:59:46;;;;;;;2.55;1.10;;;20.90;77.20;;;;;;5091576;28;20028;-70
2022/06/13 04:02:18;;;;;;;2.42;1.70;;;20.90;77.40;;;;;;5092739;28;20020;-70
2022/06/13 04:04:50;;;;;;;2.70;1.70;;;21.00;78.10;;;;;;5096045;28;20020;-71
2022/06/13 04:07:17;;;;;;;1.80;1.60;;;21.00;77.90;;;;;;5095369;28;20059;-70
2022/06/13 04:09:48;;;;;;;2.03;1.83;;;21.10;77.40;;;;;;5095794;28;20028;-70
2022/06/13 04:12:31;;;;;;;2.50;2.10;;;21.20;77.30;;;;;;5083809;28;20135;-70
2022/06/13 04:15:39;;;;;;;3.00;2.50;;;21.20;76.70;;;;;;5075237;28;20105;-71
2022/06/13 04:18:30;;;;;;;2.58;1.67;;;21.40;76.60;;;;;;5037213;28;20128;-70
2022/06/13 04:21:29;;;;;;;2.20;1.73;;;21.50;75.60;;;;;;5075560;28;20032;-71
2022/06/13 04:24:03;;;;;;;2.92;1.60;;;21.50;75.20;;;;;;5075294;28;20032;-71
2022/06/13 04:26:44;;;;;;;2.63;2.05;;;21.50;76.00;;;;;;5074361;28;20431;-70
2022/06/13 04:29:40;;;;;;;2.15;1.83;;;21.50;76.20;;;;;;5074930;28;20039;-71
2022/06/13 04:32:14;;;;;;;4.03;2.03;;;21.50;76.50;;;;;;5074947;28;20031;-71
2022/06/13 04:34:46;;;;;;;2.30;1.88;;;21.70;76.20;;;;;;5074933;28;20021;-71
2022/06/13 04:37:14;;;;;;;2.53;1.90;;;21.70;76.60;;;;;;5075000;28;20143;-71
2022/06/13 04:39:42;;;;;;;2.30;2.00;;;21.90;76.40;;;;;;5074978;28;20035;-70
2022/06/13 04:42:09;;;;;;;2.97;1.83;;;22.00;75.30;;;;;;5074977;28;20027;-70
2022/06/13 04:44:39;;;;;;;1.88;1.77;;;22.20;73.90;;;;;;5074525;28;20028;-70
2022/06/13 04:47:05;;;;;;;2.22;1.58;;;22.30;72.50;;;;;;5092086;28;20032;-70
2022/06/13 04:49:54;;;;;;;2.30;1.60;;;22.40;71.80;;;;;;5094673;28;20031;-70
2022/06/13 04:52:33;;;;;;;2.10;1.90;;;22.60;71.30;;;;;;5094611;28;20035;-71
2022/06/13 04:55:07;;;;;;;1.88;1.77;;;22.80;69.60;;;;;;5094857;28;20031;-70
2022/06/13 04:57:33;;;;;;;2.90;2.28;;;23.00;69.70;;;;;;5094360;28;20110;-70
2022/06/13 04:59:59;;;;;;;4.47;2.63;;;23.00;69.40;;;;;;5094707;28;20107;-70
2022/06/13 05:02:50;;;;;;;2.25;2.00;;;23.00;69.80;;;;;;5091945;28;20122;-70
2022/06/13 05:05:37;;;;;;;3.92;2.30;;;23.00;70.90;;;;;;5092614;28;20165;-71
2022/06/13 05:08:20;;;;;;;3.10;2.25;;;23.10;71.50;;;;;;5074276;28;20055;-71
2022/06/13 05:10:49;;;;;;;2.97;2.22;;;23.30;70.30;;;;;;5074358;28;20029;-71
2022/06/13 05:13:16;;;;;;;4.32;2.33;;;23.30;70.30;;;;;;5073551;28;20115;-71
2022/06/13 05:15:48;;;;;;;2.47;2.20;;;23.30;70.50;;;;;;5074224;28;20116;-70
2022/06/13 05:18:38;;;;;;;3.38;2.22;;;23.50;70.50;;;;;;5073985;28;20036;-71
2022/06/13 05:21:07;;;;;;;3.38;2.45;;;23.30;69.60;;;;;;5073877;28;20024;-71
2022/06/13 05:23:47;;;;;;;4.65;2.80;;;23.20;70.10;;;;;;5073734;28;20090;-70
2022/06/13 05:26:13;;;;;;;2.17;1.90;;;23.10;71.50;;;;;;5074063;28;20365;-70
2022/06/13 05:28:39;;;;;;;1.92;1.40;;;23.10;70.50;;;;;;5073325;28;20039;-70
2022/06/13 05:31:18;;;;;;;2.65;1.60;;;22.80;67.40;;;;;;5073289;28;20035;-71
2022/06/13 05:33:45;;;;;;;2.72;1.77;;;22.60;68.00;;;;;;5074046;28;20051;-71
2022/06/13 05:36:16;;;;;;;1.52;1.42;;;22.40;68.30;;;;;;5073647;28;20090;-71
2022/06/13 05:38:50;;;;;;;1.35;1.25;;;22.20;68.60;;;;;;5073340;28;20016;-71
2022/06/13 05:41:16;;;;;;;1.52;1.27;;;22.10;68.40;;;;;;5073596;28;20032;-71
2022/06/13 05:43:42;;;;;;;2.65;1.50;;;22.00;68.40;;;;;;5072857;28;20265;-70
2022/06/13 05:46:14;;;;;;;2.03;1.40;;;21.90;68.50;;;;;;5073750;28;20053;-70
2022/06/13 05:48:40;;;;;;;1.77;1.67;;;21.80;68.80;;;;;;5073446;28;20116;-70
2022/06/13 05:51:06;;;;;;;2.72;1.73;;;21.70;69.20;;;;;;5073879;28;20028;-70
2022/06/13 05:53:31;;;;;;;2.17;1.75;;;21.60;68.90;;;;;;5073098;28;20461;-69
2022/06/13 05:55:59;;;;;;;1.63;1.52;;;21.60;69.30;;;;;;5073264;28;20384;-70
2022/06/13 05:58:25;;;;;;;1.80;1.60;;;21.50;69.80;;;;;;5072761;28;20028;-70
2022/06/13 06:01:01;;;;;;;1.83;1.40;;;21.40;70.20;;;;;;5073162;28;20021;-70
2022/06/13 06:03:27;;;;;;;1.60;1.50;;;21.50;71.30;;;;;;5086431;28;20380;-70
2022/06/13 06:05:54;;;;;;;1.80;1.52;;;23.10;69.40;;;;;;5093343;28;20054;-70
2022/06/13 06:08:21;;;;;;;2.08;1.50;;;23.10;65.00;;;;;;5092884;28;20477;-72
2022/06/13 06:10:49;;;;;;;2.08;1.60;;;23.10;66.60;;;;;;5093124;28;20437;-70
2022/06/13 06:13:15;;;;;;;1.60;1.35;;;23.10;65.30;;;;;;5093286;28;20024;-70
2022/06/13 06:15:42;;;;;;;1.48;1.38;;;23.10;65.30;;;;;;5092461;28;20063;-71
2022/06/13 06:18:09;;;;;;;2.65;1.50;;;23.10;65.00;;;;;;5093336;28;20099;-71
2022/06/13 06:20:36;;;;;;;1.90;1.50;;;22.90;65.40;;;;;;5092553;28;20021;-70
2022/06/13 06:23:02;;;;;;;3.60;1.48;;;22.80;65.90;;;;;;5093163;28;20043;-70
2022/06/13 06:25:28;;;;;;;1.38;1.27;;;22.70;66.00;;;;;;5091533;28;20032;-71
2022/06/13 06:27:54;;;;;;;2.17;1.38;;;22.70;66.50;;;;;;5092657;28;20051;-71
2022/06/13 06:30:20;;;;;;;1.42;1.33;;;22.60;66.40;;;;;;5093185;28;20031;-70
2022/06/13 06:32:46;;;;;;;2.00;1.75;;;22.50;66.70;;;;;;5092882;28;20454;-71
2022/06/13 06:35:13;;;;;;;1.50;1.30;;;22.50;67.40;;;;;;5092971;28;20066;-71
2022/06/13 06:37:47;;;;;;;2.03;1.40;;;22.40;67.80;;;;;;5092432;28;20074;-71
2022/06/13 06:40:15;;;;;;;2.45;1.33;;;22.40;68.00;;;;;;5092745;28;20031;-70
2022/06/13 06:42:41;;;;;;;1.63;1.52;;;22.30;68.80;;;;;;5091984;28;20024;-69
2022/06/13 06:45:08;;;;;;;1.70;1.50;;;22.30;70.00;;;;;;5092498;28;20047;-70
2022/06/13 06:47:35;;;;;;;2.42;1.65;;;22.20;71.00;;;;;;5092174;28;20036;-70
2022/06/13 06:50:00;;;;;;;1.88;1.75;;;22.10;71.40;;;;;;5092764;28;20321;-70
2022/06/13 06:52:26;;;;;;;2.92;1.80;;;21.90;72.20;;;;;;5092314;28;20024;-70
2022/06/13 07:00:21;;;;;;;3.40;1.75;;;21.70;73.70;;;;;;5092136;28;20055;-71
2022/06/13 07:02:47;;;;;;;2.08;1.48;;;21.60;74.00;;;;;;5091885;28;20088;-70
2022/06/13 07:05:13;;;;;;;3.33;1.70;;;21.60;74.00;;;;;;5092213;28;20099;-70
2022/06/13 07:07:39;;;;;;;2.08;1.60;;;21.60;74.40;;;;;;5091883;28;20495;-71
2022/06/13 07:10:05;;;;;;;2.35;1.45;;;21.50;74.70;;;;;;5092471;28;20028;-71
2022/06/13 07:12:31;;;;;;;1.60;1.50;;;21.50;74.50;;;;;;5085671;28;20044;-70
2022/06/13 07:14:57;;;;;;;2.35;1.88;;;21.50;74.80;;;;;;5071358;28;20052;-71
2022/06/13 07:17:23;;;;;;;2.03;1.80;;;21.50;74.70;;;;;;5071748;28;20176;-71
2022/06/13 07:19:49;;;;;;;2.63;2.17;;;21.50;74.60;;;;;;5071131;28;20322;-71
2022/06/13 07:22:21;;;;;;;2.85;1.77;;;21.50;74.30;;;;;;5071839;28;20103;-71
2022/06/13 07:24:47;;;;;;;3.78;1.73;;;21.60;74.60;;;;;;5071264;28;20334;-70
2022/06/13 07:27:14;;;;;;;1.65;1.55;;;21.60;74.30;;;;;;5071781;28;20040;-70
2022/06/13 07:29:40;;;;;;;2.05;1.55;;;21.60;74.50;;;;;;5071149;28;20074;-72
2022/06/13 07:32:21;;;;;;;1.73;1.63;;;21.60;75.00;;;;;;5072014;28;20525;-71
2022/06/13 07:34:49;;;;;;;2.72;1.83;;;21.60;74.90;;;;;;5071082;28;20028;-70
2022/06/13 07:40:05;;;;;;;3.13;2.03;;;21.60;74.60;;;;;;5071696;28;20511;-71
2022/06/13 07:42:37;;;;;;;2.65;1.80;;;21.70;74.80;;;;;;5071078;28;20036;-71
2022/06/13 07:45:03;;;;;;;1.70;1.60;;;21.70;75.00;;;;;;5071105;28;20075;-70
2022/06/13 07:47:30;;;;;;;3.42;1.85;;;21.80;75.10;;;;;;5071119;28;20068;-70
2022/06/13 07:49:55;;;;;;;2.55;1.88;;;21.90;74.90;;;;;;5071500;28;20380;-70
2022/06/13 07:52:21;;;;;;;2.95;1.92;;;21.90;75.40;;;;;;5071597;28;20024;-70
2022/06/13 07:54:47;;;;;;;2.28;1.75;;;21.90;75.90;;;;;;5070881;28;20032;-70
2022/06/13 07:57:13;;;;;;;1.50;1.40;;;22.00;77.00;;;;;;5071472;28;20064;-70
2022/06/13 07:59:40;;;;;;;1.67;1.52;;;22.50;74.30;;;;;;5070832;28;20465;-70
2022/06/13 08:02:13;;;;;;;1.20;1.10;;;22.90;72.50;;;;;;5071313;28;20020;-70
2022/06/13 08:04:39;;;;;;;1.80;1.50;;;22.80;71.80;;;;;;5073006;28;20028;-71
2022/06/13 08:07:04;;;;;;;2.08;1.88;;;22.60;72.40;;;;;;5091207;28;20040;-69
2022/06/13 08:09:30;;;;;;;1.70;1.60;;;22.50;73.00;;;;;;5091140;28;20349;-70
2022/06/13 08:11:56;;;;;;;2.08;1.73;;;22.50;74.00;;;;;;5091728;28;20035;-71
2022/06/13 08:14:21;;;;;;;1.70;1.60;;;22.40;74.40;;;;;;5091546;28;20472;-70
2022/06/13 08:16:47;;;;;;;2.53;1.67;;;22.50;74.90;;;;;;5091226;28;20103;-71
2022/06/13 08:19:13;;;;;;;2.10;1.67;;;22.50;74.60;;;;;;5091430;28;20059;-70
2022/06/13 08:21:40;;;;;;;1.77;1.67;;;22.40;75.30;;;;;;5091225;28;20471;-70
2022/06/13 08:24:07;;;;;;;2.55;1.80;;;22.30;75.40;;;;;;5091520;28;20111;-70
2022/06/13 08:26:33;;;;;;;1.48;1.38;;;22.30;76.10;;;;;;5090724;28;20541;-70
2022/06/13 08:28:58;;;;;;;2.72;1.63;;;22.30;77.00;;;;;;5091388;28;20028;-71
2022/06/13 08:31:24;;;;;;;1.95;1.77;;;22.30;77.10;;;;;;5091214;28;20440;-70
2022/06/13 08:33:51;;;;;;;2.35;1.85;;;22.40;76.10;;;;;;5090834;28;20032;-70
2022/06/13 08:36:16;;;;;;;2.92;1.95;;;22.40;75.70;;;;;;5091233;28;20039;-70
2022/06/13 08:38:42;;;;;;;1.83;1.70;;;22.50;75.50;;;;;;5090727;28;20032;-70
2022/06/13 08:41:11;;;;;;;1.58;1.48;;;22.60;77.00;;;;;;5073296;28;20381;-70
2022/06/13 08:44:02;;;;;;;1.95;1.55;;;22.80;75.40;;;;;;5090739;28;20032;-70
2022/06/13 08:46:46;;;;;;;1.75;1.60;;;23.00;75.60;;;;;;5090779;28;20040;-70
2022/06/13 08:49:33;;;;;;;1.52;1.30;;;23.20;73.80;;;;;;5092783;28;20043;-71
2022/06/13 08:51:58;;;;;;;1.58;1.42;;;23.30;72.80;;;;;;5094907;28;20031;-71
2022/06/13 08:54:37;;;;;;;1.65;1.30;;;23.40;72.90;;;;;;5095064;28;20099;-70
2022/06/13 08:57:10;;;;;;;2.03;1.80;;;23.50;72.30;;;;;;5094761;28;20088;-71
2022/06/13 08:59:55;;;;;;;2.10;1.30;;;23.60;71.80;;;;;;5094234;28;20035;-71
2022/06/13 09:02:32;;;;;;;1.90;1.52;;;23.60;71.70;;;;;;5094573;28;20034;-71
2022/06/13 09:05:03;;;;;;;2.00;1.80;;;23.70;72.50;;;;;;5094939;28;20026;-70
2022/06/13 09:07:46;;;;;;;1.70;1.60;;;23.70;71.70;;;;;;5094752;28;20036;-71
2022/06/13 09:10:21;;;;;;;1.92;1.73;;;23.70;72.60;;;;;;5094510;28;20027;-69
2022/06/13 09:12:47;;;;;;;2.35;1.33;;;23.70;72.30;;;;;;5094199;28;20111;-70
2022/06/13 09:15:20;;;;;;;1.77;1.67;;;23.80;72.70;;;;;;5094309;28;20455;-69
2022/06/13 09:18:01;;;;;;;3.25;2.13;;;23.90;72.30;;;;;;5094167;28;20059;-70
2022/06/13 09:20:39;;;;;;;3.47;2.00;;;24.00;72.20;;;;;;5077462;28;20024;-69
2022/06/13 09:23:21;;;;;;;3.40;1.63;;;24.10;72.00;;;;;;5074204;28;20096;-70
2022/06/13 09:25:55;;;;;;;1.60;1.50;;;24.20;71.60;;;;;;5073433;28;20158;-71
2022/06/13 09:28:39;;;;;;;1.90;1.40;;;24.20;72.20;;;;;;5074514;28;20017;-71
2022/06/13 09:31:13;;;;;;;2.42;1.52;;;24.30;70.60;;;;;;5073901;28;20116;-71
2022/06/13 09:33:47;;;;;;;1.52;1.42;;;24.40;69.40;;;;;;5073545;28;20115;-70
2022/06/13 09:36:36;;;;;;;2.00;1.23;;;24.50;68.80;;;;;;5073942;28;20380;-70
2022/06/13 09:39:12;;;;;;;1.92;1.70;;;24.60;68.00;;;;;;5073861;28;20016;-71
2022/06/13 09:41:46;;;;;;;1.83;1.60;;;24.70;67.80;;;;;;5073473;28;20477;-71
2022/06/13 09:44:24;;;;;;;1.90;1.38;;;24.70;68.00;;;;;;5073988;28;20077;-71
2022/06/13 09:46:56;;;;;;;1.25;1.15;;;24.80;67.80;;;;;;5073202;28;20103;-71
2022/06/13 09:49:22;;;;;;;2.65;1.40;;;24.80;67.70;;;;;;5073877;28;20096;-70
2022/06/13 09:51:50;;;;;;;3.60;1.45;;;24.90;67.10;;;;;;5072955;28;20103;-71
2022/06/13 09:54:34;;;;;;;1.30;1.20;;;24.90;66.20;;;;;;5073479;28;20031;-70
2022/06/13 09:57:16;;;;;;;1.30;1.20;;;25.00;66.80;;;;;;5072767;28;20170;-71
2022/06/13 09:59:54;;;;;;;1.75;1.30;;;25.10;66.50;;;;;;5083719;28;20504;-70
2022/06/13 10:02:23;;;;;;;2.90;1.58;;;25.20;66.20;;;;;;5093322;28;20445;-71
2022/06/13 10:05:18;;;;;;;2.20;1.48;;;25.30;64.80;;;;;;5092809;28;20020;-71
2022/06/13 10:08:21;;;;;;;0.98;0.98;;;25.40;64.00;;;;;;5092345;28;20071;-70
2022/06/13 10:10:52;;;;;;;1.10;0.93;;;25.60;64.40;;;;;;5092943;28;20020;-70
2022/06/13 10:13:41;;;;;;;1.38;1.20;;;25.70;63.00;;;;;;5093137;28;20039;-70
2022/06/13 10:16:27;;;;;;;1.02;0.93;;;25.80;63.40;;;;;;5093081;28;20484;-71
2022/06/13 10:19:18;;;;;;;1.08;0.80;;;25.90;63.70;;;;;;5092837;28;20031;-70
2022/06/13 10:21:48;;;;;;;2.13;1.30;;;25.90;61.10;;;;;;5092783;28;20027;-70
2022/06/13 10:24:28;;;;;;;0.93;0.90;;;26.00;60.90;;;;;;5092745;28;20024;-70
2022/06/13 10:27:02;;;;;;;1.35;1.00;;;26.10;61.50;;;;;;5092502;28;20123;-71
2022/06/13 10:30:00;;;;;;;1.23;1.10;;;26.10;61.60;;;;;;5092811;28;20384;-71
2022/06/13 10:32:56;;;;;;;1.63;0.90;;;26.10;60.00;;;;;;5092589;28;20020;-71
2022/06/13 10:35:51;;;;;;;0.85;0.85;;;26.10;60.00;;;;;;5093153;28;20035;-71
2022/06/13 10:38:38;;;;;;;1.10;1.00;;;26.10;60.60;;;;;;5092971;28;20024;-71
2022/06/13 10:41:04;;;;;;;1.10;1.00;;;26.10;60.80;;;;;;5092886;28;20483;-71
2022/06/13 10:43:31;;;;;;;1.13;0.90;;;26.10;60.60;;;;;;5057951;28;20035;-71
2022/06/13 10:45:57;;;;;;;3.50;1.42;;;26.10;60.40;;;;;;5092013;28;20048;-71
2022/06/13 10:48:37;;;;;;;1.05;0.90;;;26.10;60.10;;;;;;5092185;28;20321;-70
2022/06/13 10:51:04;;;;;;;1.30;1.20;;;26.00;60.40;;;;;;5091888;28;20361;-70
2022/06/13 10:53:47;;;;;;;0.80;0.80;;;26.00;61.70;;;;;;5074448;28;20380;-71
2022/06/13 10:56:21;;;;;;;1.13;0.90;;;26.00;60.90;;;;;;5092663;28;20028;-70
2022/06/13 10:58:50;;;;;;;1.20;1.10;;;26.00;60.80;;;;;;5073756;28;20024;-70
2022/06/13 11:01:22;;;;;;;1.00;0.90;;;25.90;61.10;;;;;;5092490;28;20020;-71
2022/06/13 11:04:01;;;;;;;1.00;0.90;;;25.90;60.70;;;;;;5092111;28;20106;-71
2022/06/13 11:06:41;;;;;;;1.40;0.80;;;25.90;60.10;;;;;;5092416;28;20379;-71
2022/06/13 11:09:32;;;;;;;0.75;0.75;;;25.90;60.90;;;;;;5090799;28;20153;-71
2022/06/13 11:12:01;;;;;;;0.77;0.77;;;25.90;60.70;;;;;;5071094;28;20143;-70
2022/06/13 11:14:34;;;;;;;0.88;0.85;;;25.90;60.90;;;;;;5072111;28;20035;-71
2022/06/13 11:22:39;;;;;;;2.20;1.13;;;26.00;59.40;;;;;;5071830;28;20552;-71
2022/06/13 11:25:25;;;;;;;1.00;0.80;;;26.10;59.60;;;;;;5071343;28;20103;-71
2022/06/13 11:28:14;;;;;;;1.23;1.13;;;26.10;60.30;;;;;;5071371;28;20109;-71
2022/06/13 11:30:42;;;;;;;1.25;0.98;;;26.10;57.70;;;;;;5071838;28;20025;-71
2022/06/13 11:33:10;;;;;;;0.88;0.80;;;26.20;58.40;;;;;;5071390;28;20032;-71
2022/06/13 11:35:40;;;;;;;0.80;0.77;;;26.30;57.50;;;;;;5071721;28;20461;-71
2022/06/13 11:38:27;;;;;;;0.98;0.93;;;26.30;58.40;;;;;;5071301;28;20039;-71
2022/06/13 11:41:10;;;;;;;0.80;0.80;;;26.30;57.70;;;;;;5071214;28;20461;-71
2022/06/13 11:43:45;;;;;;;1.02;0.93;;;26.40;58.20;;;;;;5071167;28;20074;-71
2022/06/13 11:46:36;;;;;;;0.80;0.70;;;26.40;57.70;;;;;;5071493;28;20111;-70
2022/06/13 11:49:24;;;;;;;0.80;0.80;;;26.40;57.10;;;;;;5070511;28;20052;-70
2022/06/13 11:52:09;;;;;;;0.80;0.80;;;26.40;57.50;;;;;;5053297;28;20349;-70
2022/06/13 11:54:46;;;;;;;0.90;0.90;;;26.50;58.20;;;;;;5071459;28;20031;-70
2022/06/13 11:57:17;;;;;;;1.10;1.00;;;26.40;57.30;;;;;;5071469;28;20028;-71
2022/06/13 11:59:49;;;;;;;0.95;0.90;;;26.40;57.40;;;;;;5071310;28;20074;-71
2022/06/13 12:02:24;;;;;;;2.15;0.70;;;26.40;56.30;;;;;;5071335;28;20041;-70
2022/06/13 12:04:54;;;;;;;0.80;0.80;;;26.40;56.60;;;;;;5076664;28;20017;-70
2022/06/13 12:07:31;;;;;;;0.80;0.80;;;26.40;57.20;;;;;;5091415;28;20032;-70
2022/06/13 12:10:00;;;;;;;1.25;0.80;;;26.40;57.70;;;;;;5090979;28;20050;-70
2022/06/13 12:12:43;;;;;;;1.10;1.00;;;26.30;57.10;;;;;;5091744;28;20047;-70
2022/06/13 12:15:10;;;;;;;1.10;1.00;;;26.30;57.70;;;;;;5090962;28;20499;-70
2022/06/13 12:17:41;;;;;;;0.70;0.70;;;26.30;58.00;;;;;;5091411;28;20068;-70
2022/06/13 12:20:19;;;;;;;0.75;0.73;;;26.30;58.10;;;;;;5090645;28;20020;-71
2022/06/13 12:22:48;;;;;;;1.00;1.00;;;26.30;57.70;;;;;;5091883;28;20401;-71
2022/06/13 12:25:29;;;;;;;1.25;0.90;;;26.20;58.20;;;;;;5095024;28;20074;-71
2022/06/13 12:28:11;;;;;;;1.10;1.00;;;26.30;58.70;;;;;;5094649;28;20039;-71
2022/06/13 12:30:55;;;;;;;1.10;1.00;;;26.20;59.40;;;;;;5094911;28;20093;-71
2022/06/13 12:33:57;;;;;;;1.10;1.00;;;26.30;59.40;;;;;;5094903;28;20032;-71
2022/06/13 12:36:31;;;;;;;1.17;0.82;;;26.30;59.00;;;;;;5095279;28;20040;-71
2022/06/13 12:39:16;;;;;;;0.75;0.75;;;26.40;57.80;;;;;;5095156;28;20095;-70
2022/06/13 12:41:49;;;;;;;0.90;0.70;;;26.40;57.90;;;;;;5095140;28;20024;-71
2022/06/13 12:44:24;;;;;;;0.93;0.80;;;26.40;58.30;;;;;;5095156;28;20044;-71
2022/06/13 12:46:55;;;;;;;0.85;0.75;;;26.40;57.90;;;;;;5076369;28;20509;-71
2022/06/13 12:49:39;;;;;;;0.90;0.90;;;26.40;57.50;;;;;;5095256;28;20051;-72
2022/06/13 12:52:38;;;;;;;0.90;0.90;;;26.40;57.30;;;;;;5094593;28;20024;-70
2022/06/13 12:55:39;;;;;;;0.90;0.90;;;26.30;60.00;;;;;;5094139;28;20176;-72
2022/06/13 12:58:20;;;;;;;0.80;0.80;;;26.10;62.30;;;;;;5094386;28;20024;-70
2022/06/13 13:00:51;;;;;;;5.63;1.60;;;26.00;62.90;;;;;;5094509;28;20020;-70
2022/06/13 13:03:33;;;;;;;1.10;0.90;;;25.80;63.70;;;;;;5094726;28;20376;-70
2022/06/13 13:06:15;;;;;;;1.10;1.00;;;25.60;65.20;;;;;;5078020;28;20389;-71
2022/06/13 13:09:07;;;;;;;1.70;1.00;;;25.50;67.30;;;;;;5074218;28;20107;-70
2022/06/13 13:11:54;;;;;;;1.00;0.90;;;25.40;67.90;;;;;;5074256;28;20024;-71
2022/06/13 13:14:39;;;;;;;1.25;1.10;;;25.30;68.40;;;;;;5074276;28;20025;-70
2022/06/13 13:17:23;;;;;;;3.20;1.15;;;25.30;69.10;;;;;;5073811;28;20453;-71
2022/06/13 13:20:17;;;;;;;1.02;0.85;;;25.20;70.10;;;;;;5073942;28;20025;-70
2022/06/13 13:22:57;;;;;;;0.77;0.77;;;25.20;70.50;;;;;;5074146;28;20032;-70
2022/06/13 13:25:26;;;;;;;1.20;0.93;;;25.20;71.20;;;;;;5056087;28;20409;-71
2022/06/13 13:28:01;;;;;;;1.20;1.05;;;25.10;71.70;;;;;;5073537;28;20036;-71
2022/06/13 13:30:45;;;;;;;1.08;0.98;;;25.10;71.50;;;;;;5073780;28;20388;-71
2022/06/13 13:33:26;;;;;;;1.52;0.85;;;25.10;69.90;;;;;;5073529;28;20353;-71
2022/06/13 13:36:11;;;;;;;0.88;0.80;;;25.10;67.90;;;;;;5072590;28;20036;-70
2022/06/13 13:38:46;;;;;;;1.85;1.00;;;25.10;68.00;;;;;;5073091;28;20041;-70
2022/06/13 13:41:34;;;;;;;1.60;0.93;;;25.10;67.90;;;;;;5073534;28;20040;-71
2022/06/13 13:44:11;;;;;;;0.98;0.90;;;25.10;68.90;;;;;;5073115;28;20047;-70
2022/06/13 13:47:06;;;;;;;0.98;0.88;;;25.20;69.50;;;;;;5073246;28;20619;-70